Kezdőlap
METAR-TAF:

METAR-TAF

Repülőterek :

Dzsidda, Szaúd-Arábia

földrajzi szélesség: 21-42N, földrajzi hosszúság: 039-11E, magasság: 15 m

Jelenlegi meteorológiai megfigyelések

A jelentés 1 órával és 2 perccel ezelõtt készült, 04:00 UTC
Északi szél 4 kt
Hőmérséklet 22°C
Páratartalom 65%
Légköri nyomás 1016 hPa
Látótávolság 10 km, vagy több
felhőtlen 1500 m magasságban, és nincs gomolyfelhõ

METAR: OEJN 100400Z 36004KT CAVOK 22/15 Q1016 NOSIG

Idő: 08:02 (05:02 UTC)

Előrejelzés

A jelentés 6 órával és 2 perccel ezelõtt készült, 23:00 UTC
Az előrejelzés 10-én 00 óra UTC és 11-én 06 óra UTC között érvényes
Kelet-északkeleti szél 6 kt
Látótávolság: 7000 m
Szórványos felhőzet 4000 lábon
10-én 06 óra UTC és 10-én 08 óra UTC között fokozatosan kialakuló
Észak-északnyugati szél 14 kt

TAF: OEJN 092300Z 1000/1106 06006KT 7000 SCT040 BECMG 1006/1008 33014KT

Meteorológiai megfigyelések és előrejelzések több, mint 4000 repülőtéren (METAR és TAF jelentéseket).

A térképen piros és sárga pontok jelzik az elérhető meteorológiai állomásokat.

Mozgassa az egeret a pont fölött, hogy megjelenjen az állomás neve.

Azután kattintson az időjárási megfigyelések és előrejelzések megtekintéséhez.

A térkép megváltoztatása: kattintson a fekete keresztel jelölt zöld gombra ráközelítéshez, a vonallal jelölt zöld gombra távolításhoz, vagy a zöld nyilakra a szomszédos térképek eléréséhez.


METAR-TAF: